This is the latest recevied weather packets stored in our database for station/object K4DFD-13. If no packets are shown the sender has not sent any weather packets the latest 1 day(s).
| Time | Temp. | Humidity | Pressure | Rain* | Wind** | Luminosity | Snow |
|---|---|---|---|---|---|---|---|
| 1778100206 | 21.11° C | 72% | 1011.6 hPa | 0 mm | - | - | - |
| 1778099906 | 21.11° C | 71% | 1011.7 hPa | 0 mm | - | - | - |
| 1778097202 | 21.11° C | 75% | 1012 hPa | 0 mm | - | - | - |
| 1778095400 | 19.44° C | 78% | 1012.2 hPa | 0 mm | - | - | - |
| 1778094499 | 20° C | 79% | 1012.1 hPa | 0 mm | - | - | - |
| 1778093605 | 19.44° C | 81% | 1012.1 hPa | 0 mm | - | - | - |
| 1778092116 | 18.33° C | 87% | 1012 hPa | 0 mm | - | - | - |
| 1778090901 | 17.78° C | 91% | 1012.4 hPa | 0.25 mm | - | - | - |
| 1778090614 | 17.78° C | 90% | 1012.4 hPa | 0.25 mm | - | - | - |
| 1778089993 | 17.78° C | 90% | 1012.3 hPa | 0 mm | - | - | - |
| 1778089112 | 17.22° C | 91% | 1012.3 hPa | 0 mm | - | - | - |
| 1778088211 | 16.67° C | 92% | 1012.7 hPa | 0.51 mm | - | - | - |
| 1778087911 | 16.67° C | 91% | 1013.2 hPa | 0.51 mm | - | - | - |
| 1778087310 | 16.67° C | 94% | 1013.4 hPa | 0.51 mm | - | - | - |
| 1778086709 | 16.67° C | 94% | 1013.7 hPa | 0.51 mm | - | - | - |
| 1778085808 | 16.11° C | 94% | 1013.9 hPa | 0.25 mm | - | - | - |
| 1778084907 | 16.11° C | 93% | 1014 hPa | 0.25 mm | - | - | - |
| 1778084306 | 16.11° C | 94% | 1014 hPa | 0.25 mm | - | - | - |
| 1778082504 | 16.11° C | 92% | 1013.7 hPa | 0.25 mm | - | - | - |
| 1778081903 | 16.11° C | 91% | 1013.6 hPa | 0 mm | - | - | - |
| 1778079500 | 15.56° C | 92% | 1013.3 hPa | 1.02 mm | - | - | - |
| 1778079200 | 15.56° C | 93% | 1013.1 hPa | 1.27 mm | - | - | - |
| 1778078899 | 15° C | 95% | 1013 hPa | 1.27 mm | - | - | - |
| 1778078599 | 15° C | 95% | 1013 hPa | 1.27 mm | - | - | - |
| 1778077698 | 14.44° C | 96% | 1013.2 hPa | 2.29 mm | - | - | - |
* Rain latest hour (hover to see other rain measurements)
** Current wind speed in m/s (hover to see current wind gust speed)